sensor_id;sensor_type;location;lat;lon;timestamp;P1;durP1;ratioP1;P2;durP2;ratioP2
2810;SDS011;1413;52.440;13.506;2022-11-21T00:00:31;23.83;;;9.40;;
2810;SDS011;1413;52.440;13.506;2022-11-21T00:03:00;21.20;;;9.30;;
2810;SDS011;1413;52.440;13.506;2022-11-21T00:05:28;22.42;;;10.07;;
2810;SDS011;1413;52.440;13.506;2022-11-21T00:07:56;22.98;;;8.57;;
2810;SDS011;1413;52.440;13.506;2022-11-21T00:10:24;20.30;;;8.63;;
2810;SDS011;1413;52.440;13.506;2022-11-21T00:12:52;21.65;;;8.85;;
2810;SDS011;1413;52.440;13.506;2022-11-21T00:15:20;21.13;;;9.15;;
2810;SDS011;1413;52.440;13.506;2022-11-21T00:17:47;20.15;;;8.93;;
2810;SDS011;1413;52.440;13.506;2022-11-21T00:20:17;17.92;;;8.48;;
2810;SDS011;1413;52.440;13.506;2022-11-21T00:22:45;20.00;;;8.55;;
2810;SDS011;1413;52.440;13.506;2022-11-21T00:25:12;20.15;;;9.00;;
2810;SDS011;1413;52.440;13.506;2022-11-21T00:27:40;21.05;;;8.70;;
2810;SDS011;1413;52.440;13.506;2022-11-21T00:30:08;24.17;;;9.13;;
2810;SDS011;1413;52.440;13.506;2022-11-21T00:32:36;22.05;;;9.32;;
2810;SDS011;1413;52.440;13.506;2022-11-21T00:35:04;21.33;;;8.70;;
2810;SDS011;1413;52.440;13.506;2022-11-21T00:37:33;18.90;;;9.32;;
2810;SDS011;1413;52.440;13.506;2022-11-21T00:40:00;17.73;;;8.38;;
2810;SDS011;1413;52.440;13.506;2022-11-21T00:42:28;19.33;;;8.80;;
2810;SDS011;1413;52.440;13.506;2022-11-21T00:44:55;23.25;;;9.35;;
2810;SDS011;1413;52.440;13.506;2022-11-21T00:47:23;19.55;;;9.02;;
2810;SDS011;1413;52.440;13.506;2022-11-21T00:49:50;19.90;;;8.50;;
2810;SDS011;1413;52.440;13.506;2022-11-21T00:52:18;17.58;;;8.30;;
2810;SDS011;1413;52.440;13.506;2022-11-21T00:54:47;20.80;;;8.65;;
2810;SDS011;1413;52.440;13.506;2022-11-21T00:57:14;18.85;;;8.52;;
2810;SDS011;1413;52.440;13.506;2022-11-21T00:59:42;21.13;;;8.45;;
2810;SDS011;1413;52.440;13.506;2022-11-21T01:02:09;22.10;;;8.70;;
2810;SDS011;1413;52.440;13.506;2022-11-21T01:04:38;20.38;;;9.38;;
2810;SDS011;1413;52.440;13.506;2022-11-21T01:07:06;18.70;;;8.77;;
2810;SDS011;1413;52.440;13.506;2022-11-21T01:09:34;18.80;;;8.32;;
2810;SDS011;1413;52.440;13.506;2022-11-21T01:12:02;19.52;;;8.25;;
2810;SDS011;1413;52.440;13.506;2022-11-21T01:14:30;18.20;;;8.68;;
2810;SDS011;1413;52.440;13.506;2022-11-21T01:16:58;21.23;;;8.98;;
2810;SDS011;1413;52.440;13.506;2022-11-21T01:19:25;19.75;;;9.23;;
2810;SDS011;1413;52.440;13.506;2022-11-21T01:21:53;19.63;;;8.80;;
2810;SDS011;1413;52.440;13.506;2022-11-21T01:24:20;20.90;;;9.05;;
2810;SDS011;1413;52.440;13.506;2022-11-21T01:26:47;20.10;;;9.07;;
2810;SDS011;1413;52.440;13.506;2022-11-21T01:29:17;19.90;;;8.57;;
2810;SDS011;1413;52.440;13.506;2022-11-21T01:31:45;21.20;;;8.85;;
2810;SDS011;1413;52.440;13.506;2022-11-21T01:34:12;22.20;;;9.30;;
2810;SDS011;1413;52.440;13.506;2022-11-21T01:36:40;20.58;;;8.98;;
2810;SDS011;1413;52.440;13.506;2022-11-21T01:39:07;19.60;;;9.40;;
2810;SDS011;1413;52.440;13.506;2022-11-21T01:41:37;19.73;;;9.50;;
2810;SDS011;1413;52.440;13.506;2022-11-21T01:44:17;16.98;;;8.10;;
2810;SDS011;1413;52.440;13.506;2022-11-21T01:46:46;20.23;;;8.20;;
2810;SDS011;1413;52.440;13.506;2022-11-21T01:49:15;20.65;;;8.10;;
2810;SDS011;1413;52.440;13.506;2022-11-21T01:51:45;20.00;;;8.68;;
2810;SDS011;1413;52.440;13.506;2022-11-21T01:54:15;17.88;;;9.05;;
2810;SDS011;1413;52.440;13.506;2022-11-21T01:56:45;17.30;;;8.35;;
2810;SDS011;1413;52.440;13.506;2022-11-21T01:59:15;21.27;;;8.90;;
2810;SDS011;1413;52.440;13.506;2022-11-21T02:01:43;22.70;;;8.80;;
2810;SDS011;1413;52.440;13.506;2022-11-21T02:04:13;28.50;;;9.15;;
2810;SDS011;1413;52.440;13.506;2022-11-21T02:06:41;19.27;;;8.85;;
2810;SDS011;1413;52.440;13.506;2022-11-21T02:09:09;20.40;;;9.55;;
2810;SDS011;1413;52.440;13.506;2022-11-21T02:11:38;20.38;;;9.18;;
2810;SDS011;1413;52.440;13.506;2022-11-21T02:14:06;20.88;;;9.55;;
2810;SDS011;1413;52.440;13.506;2022-11-21T02:16:35;20.40;;;9.23;;
2810;SDS011;1413;52.440;13.506;2022-11-21T02:19:02;19.27;;;8.93;;
2810;SDS011;1413;52.440;13.506;2022-11-21T02:21:35;17.27;;;8.18;;
2810;SDS011;1413;52.440;13.506;2022-11-21T02:24:07;24.90;;;9.32;;
2810;SDS011;1413;52.440;13.506;2022-11-21T02:26:39;19.90;;;9.10;;
2810;SDS011;1413;52.440;13.506;2022-11-21T02:29:07;20.10;;;8.55;;
2810;SDS011;1413;52.440;13.506;2022-11-21T02:31:35;19.52;;;8.55;;
2810;SDS011;1413;52.440;13.506;2022-11-21T02:34:02;21.17;;;8.82;;
2810;SDS011;1413;52.440;13.506;2022-11-21T02:36:40;20.05;;;9.35;;
2810;SDS011;1413;52.440;13.506;2022-11-21T02:41:36;18.90;;;7.97;;
2810;SDS011;1413;52.440;13.506;2022-11-21T02:44:05;18.90;;;8.23;;
2810;SDS011;1413;52.440;13.506;2022-11-21T02:46:35;18.88;;;8.30;;
2810;SDS011;1413;52.440;13.506;2022-11-21T02:49:03;22.27;;;9.00;;
2810;SDS011;1413;52.440;13.506;2022-11-21T02:51:32;19.05;;;8.38;;
2810;SDS011;1413;52.440;13.506;2022-11-21T02:54:00;20.17;;;9.38;;
2810;SDS011;1413;52.440;13.506;2022-11-21T02:56:27;19.95;;;9.05;;
2810;SDS011;1413;52.440;13.506;2022-11-21T02:58:55;17.65;;;8.23;;
2810;SDS011;1413;52.440;13.506;2022-11-21T03:01:24;19.08;;;8.48;;
2810;SDS011;1413;52.440;13.506;2022-11-21T03:03:52;18.25;;;8.82;;
2810;SDS011;1413;52.440;13.506;2022-11-21T03:06:19;19.45;;;9.07;;
2810;SDS011;1413;52.440;13.506;2022-11-21T03:08:47;20.58;;;9.05;;
2810;SDS011;1413;52.440;13.506;2022-11-21T03:11:14;19.75;;;8.85;;
2810;SDS011;1413;52.440;13.506;2022-11-21T03:13:42;20.95;;;9.27;;
2810;SDS011;1413;52.440;13.506;2022-11-21T03:16:09;19.67;;;8.55;;
2810;SDS011;1413;52.440;13.506;2022-11-21T03:18:38;18.90;;;8.55;;
2810;SDS011;1413;52.440;13.506;2022-11-21T03:21:05;21.15;;;9.20;;
2810;SDS011;1413;52.440;13.506;2022-11-21T03:23:33;20.35;;;8.75;;
2810;SDS011;1413;52.440;13.506;2022-11-21T03:26:00;20.58;;;8.75;;
2810;SDS011;1413;52.440;13.506;2022-11-21T03:28:28;19.65;;;8.85;;
2810;SDS011;1413;52.440;13.506;2022-11-21T03:30:55;23.40;;;9.68;;
2810;SDS011;1413;52.440;13.506;2022-11-21T03:33:23;19.55;;;8.80;;
2810;SDS011;1413;52.440;13.506;2022-11-21T03:35:51;21.23;;;8.80;;
2810;SDS011;1413;52.440;13.506;2022-11-21T03:38:19;17.38;;;8.68;;
2810;SDS011;1413;52.440;13.506;2022-11-21T03:40:46;22.17;;;9.93;;
2810;SDS011;1413;52.440;13.506;2022-11-21T03:43:14;19.95;;;8.75;;
2810;SDS011;1413;52.440;13.506;2022-11-21T03:45:44;21.55;;;9.45;;
2810;SDS011;1413;52.440;13.506;2022-11-21T03:48:12;21.75;;;9.82;;
2810;SDS011;1413;52.440;13.506;2022-11-21T03:50:40;20.08;;;9.07;;
2810;SDS011;1413;52.440;13.506;2022-11-21T03:53:09;19.38;;;8.15;;
2810;SDS011;1413;52.440;13.506;2022-11-21T03:55:37;20.63;;;9.15;;
2810;SDS011;1413;52.440;13.506;2022-11-21T03:58:04;21.42;;;9.30;;
2810;SDS011;1413;52.440;13.506;2022-11-21T04:00:32;21.10;;;9.10;;
2810;SDS011;1413;52.440;13.506;2022-11-21T04:02:59;24.35;;;9.52;;
2810;SDS011;1413;52.440;13.506;2022-11-21T04:05:27;22.48;;;9.88;;
2810;SDS011;1413;52.440;13.506;2022-11-21T04:07:54;22.02;;;9.07;;
2810;SDS011;1413;52.440;13.506;2022-11-21T04:10:23;22.70;;;9.00;;
2810;SDS011;1413;52.440;13.506;2022-11-21T04:12:50;21.00;;;8.82;;
2810;SDS011;1413;52.440;13.506;2022-11-21T04:15:18;19.52;;;9.38;;
2810;SDS011;1413;52.440;13.506;2022-11-21T04:17:45;23.17;;;9.73;;
2810;SDS011;1413;52.440;13.506;2022-11-21T04:20:13;19.33;;;9.13;;
2810;SDS011;1413;52.440;13.506;2022-11-21T04:22:41;22.25;;;9.82;;
2810;SDS011;1413;52.440;13.506;2022-11-21T04:25:08;19.40;;;8.52;;
2810;SDS011;1413;52.440;13.506;2022-11-21T04:27:37;25.17;;;9.70;;
2810;SDS011;1413;52.440;13.506;2022-11-21T04:30:05;21.48;;;9.80;;
2810;SDS011;1413;52.440;13.506;2022-11-21T04:32:33;22.17;;;9.60;;
2810;SDS011;1413;52.440;13.506;2022-11-21T04:35:00;22.83;;;10.23;;
2810;SDS011;1413;52.440;13.506;2022-11-21T04:37:28;22.92;;;9.38;;
2810;SDS011;1413;52.440;13.506;2022-11-21T04:39:55;21.88;;;9.48;;
2810;SDS011;1413;52.440;13.506;2022-11-21T04:42:23;21.83;;;8.57;;
2810;SDS011;1413;52.440;13.506;2022-11-21T04:44:52;21.98;;;8.77;;
2810;SDS011;1413;52.440;13.506;2022-11-21T04:47:19;23.10;;;9.80;;
2810;SDS011;1413;52.440;13.506;2022-11-21T04:49:47;22.20;;;9.27;;
2810;SDS011;1413;52.440;13.506;2022-11-21T04:52:14;22.92;;;10.00;;
2810;SDS011;1413;52.440;13.506;2022-11-21T04:54:42;23.10;;;9.65;;
2810;SDS011;1413;52.440;13.506;2022-11-21T04:57:09;24.27;;;10.10;;
2810;SDS011;1413;52.440;13.506;2022-11-21T04:59:37;22.58;;;9.93;;
2810;SDS011;1413;52.440;13.506;2022-11-21T05:02:05;20.67;;;8.95;;
2810;SDS011;1413;52.440;13.506;2022-11-21T05:04:33;22.60;;;9.30;;
2810;SDS011;1413;52.440;13.506;2022-11-21T05:07:00;23.83;;;9.95;;
2810;SDS011;1413;52.440;13.506;2022-11-21T05:09:28;24.30;;;9.23;;
2810;SDS011;1413;52.440;13.506;2022-11-21T05:11:55;19.17;;;8.63;;
2810;SDS011;1413;52.440;13.506;2022-11-21T05:14:40;20.70;;;8.82;;
2810;SDS011;1413;52.440;13.506;2022-11-21T05:17:09;20.92;;;9.02;;
2810;SDS011;1413;52.440;13.506;2022-11-21T05:19:37;19.17;;;8.38;;
2810;SDS011;1413;52.440;13.506;2022-11-21T05:22:04;28.63;;;12.55;;
2810;SDS011;1413;52.440;13.506;2022-11-21T05:24:32;23.30;;;8.63;;
2810;SDS011;1413;52.440;13.506;2022-11-21T05:26:59;22.17;;;8.98;;
2810;SDS011;1413;52.440;13.506;2022-11-21T05:29:27;21.92;;;9.85;;
2810;SDS011;1413;52.440;13.506;2022-11-21T05:31:54;23.05;;;9.65;;
2810;SDS011;1413;52.440;13.506;2022-11-21T05:34:23;19.52;;;9.23;;
2810;SDS011;1413;52.440;13.506;2022-11-21T05:36:51;23.85;;;9.20;;
2810;SDS011;1413;52.440;13.506;2022-11-21T05:39:22;24.60;;;9.30;;
2810;SDS011;1413;52.440;13.506;2022-11-21T05:41:49;21.15;;;10.00;;
2810;SDS011;1413;52.440;13.506;2022-11-21T05:44:17;24.40;;;10.02;;
2810;SDS011;1413;52.440;13.506;2022-11-21T05:46:43;22.95;;;10.55;;
2810;SDS011;1413;52.440;13.506;2022-11-21T05:49:11;21.88;;;9.80;;
2810;SDS011;1413;52.440;13.506;2022-11-21T05:51:40;25.48;;;10.45;;
2810;SDS011;1413;52.440;13.506;2022-11-21T05:54:10;25.55;;;10.20;;
2810;SDS011;1413;52.440;13.506;2022-11-21T05:56:38;22.52;;;9.25;;
2810;SDS011;1413;52.440;13.506;2022-11-21T05:59:05;26.23;;;11.27;;
2810;SDS011;1413;52.440;13.506;2022-11-21T06:01:33;23.73;;;10.48;;
2810;SDS011;1413;52.440;13.506;2022-11-21T06:04:20;26.02;;;10.63;;
2810;SDS011;1413;52.440;13.506;2022-11-21T06:06:49;23.40;;;10.52;;
2810;SDS011;1413;52.440;13.506;2022-11-21T06:09:16;23.27;;;9.88;;
2810;SDS011;1413;52.440;13.506;2022-11-21T06:11:44;25.02;;;9.60;;
2810;SDS011;1413;52.440;13.506;2022-11-21T06:14:11;23.45;;;10.35;;
2810;SDS011;1413;52.440;13.506;2022-11-21T06:16:39;25.70;;;11.07;;
2810;SDS011;1413;52.440;13.506;2022-11-21T06:19:06;23.15;;;9.32;;
2810;SDS011;1413;52.440;13.506;2022-11-21T06:21:34;21.23;;;9.95;;
2810;SDS011;1413;52.440;13.506;2022-11-21T06:24:04;24.80;;;10.35;;
2810;SDS011;1413;52.440;13.506;2022-11-21T06:26:31;24.15;;;11.02;;
2810;SDS011;1413;52.440;13.506;2022-11-21T06:28:59;23.23;;;10.23;;
2810;SDS011;1413;52.440;13.506;2022-11-21T06:31:26;25.67;;;11.00;;
2810;SDS011;1413;52.440;13.506;2022-11-21T06:33:54;24.35;;;10.27;;
2810;SDS011;1413;52.440;13.506;2022-11-21T06:36:22;22.40;;;10.02;;
2810;SDS011;1413;52.440;13.506;2022-11-21T06:38:51;20.65;;;9.88;;
2810;SDS011;1413;52.440;13.506;2022-11-21T06:41:21;24.88;;;10.68;;
2810;SDS011;1413;52.440;13.506;2022-11-21T06:43:48;21.63;;;9.43;;
2810;SDS011;1413;52.440;13.506;2022-11-21T06:46:16;22.58;;;9.50;;
2810;SDS011;1413;52.440;13.506;2022-11-21T06:48:43;27.33;;;11.32;;
2810;SDS011;1413;52.440;13.506;2022-11-21T06:51:12;26.75;;;10.75;;
2810;SDS011;1413;52.440;13.506;2022-11-21T06:53:39;23.40;;;9.43;;
2810;SDS011;1413;52.440;13.506;2022-11-21T06:56:07;26.15;;;10.65;;
2810;SDS011;1413;52.440;13.506;2022-11-21T06:58:36;23.92;;;9.95;;
2810;SDS011;1413;52.440;13.506;2022-11-21T07:01:04;28.30;;;11.00;;
2810;SDS011;1413;52.440;13.506;2022-11-21T07:03:32;23.23;;;10.60;;
2810;SDS011;1413;52.440;13.506;2022-11-21T07:06:00;22.88;;;10.30;;
2810;SDS011;1413;52.440;13.506;2022-11-21T07:08:27;22.08;;;9.90;;
2810;SDS011;1413;52.440;13.506;2022-11-21T07:10:55;24.10;;;10.40;;
2810;SDS011;1413;52.440;13.506;2022-11-21T07:13:44;27.67;;;11.18;;
2810;SDS011;1413;52.440;13.506;2022-11-21T07:16:12;26.20;;;10.95;;
2810;SDS011;1413;52.440;13.506;2022-11-21T07:18:40;26.13;;;10.90;;
2810;SDS011;1413;52.440;13.506;2022-11-21T07:21:08;23.85;;;11.18;;
2810;SDS011;1413;52.440;13.506;2022-11-21T07:23:36;26.48;;;10.90;;
2810;SDS011;1413;52.440;13.506;2022-11-21T07:26:04;27.48;;;10.48;;
2810;SDS011;1413;52.440;13.506;2022-11-21T07:28:32;27.20;;;11.68;;
2810;SDS011;1413;52.440;13.506;2022-11-21T07:31:01;26.08;;;10.77;;
2810;SDS011;1413;52.440;13.506;2022-11-21T07:33:38;27.35;;;12.30;;
2810;SDS011;1413;52.440;13.506;2022-11-21T07:36:05;27.08;;;11.07;;
2810;SDS011;1413;52.440;13.506;2022-11-21T07:38:33;22.30;;;9.90;;
2810;SDS011;1413;52.440;13.506;2022-11-21T07:41:00;25.05;;;11.40;;
2810;SDS011;1413;52.440;13.506;2022-11-21T07:43:28;28.45;;;11.93;;
2810;SDS011;1413;52.440;13.506;2022-11-21T07:45:55;28.25;;;12.13;;
2810;SDS011;1413;52.440;13.506;2022-11-21T07:48:24;24.98;;;11.60;;
2810;SDS011;1413;52.440;13.506;2022-11-21T07:50:52;28.15;;;11.85;;
2810;SDS011;1413;52.440;13.506;2022-11-21T07:53:19;26.55;;;11.63;;
2810;SDS011;1413;52.440;13.506;2022-11-21T07:55:46;28.45;;;11.27;;
2810;SDS011;1413;52.440;13.506;2022-11-21T07:58:15;30.02;;;12.65;;
2810;SDS011;1413;52.440;13.506;2022-11-21T08:00:43;30.63;;;11.55;;
2810;SDS011;1413;52.440;13.506;2022-11-21T08:03:11;23.40;;;11.63;;
2810;SDS011;1413;52.440;13.506;2022-11-21T08:05:40;27.80;;;11.43;;
2810;SDS011;1413;52.440;13.506;2022-11-21T08:08:08;24.45;;;11.43;;
2810;SDS011;1413;52.440;13.506;2022-11-21T08:10:36;30.00;;;13.63;;
2810;SDS011;1413;52.440;13.506;2022-11-21T08:13:04;30.40;;;12.88;;
2810;SDS011;1413;52.440;13.506;2022-11-21T08:15:31;33.05;;;14.15;;
2810;SDS011;1413;52.440;13.506;2022-11-21T08:18:07;40.35;;;17.35;;
2810;SDS011;1413;52.440;13.506;2022-11-21T08:20:35;33.80;;;15.20;;
2810;SDS011;1413;52.440;13.506;2022-11-21T08:23:04;32.92;;;14.00;;
2810;SDS011;1413;52.440;13.506;2022-11-21T08:25:32;32.35;;;14.57;;
2810;SDS011;1413;52.440;13.506;2022-11-21T08:27:59;32.00;;;13.82;;
2810;SDS011;1413;52.440;13.506;2022-11-21T08:30:27;30.88;;;14.55;;
2810;SDS011;1413;52.440;13.506;2022-11-21T08:32:56;33.33;;;14.57;;
2810;SDS011;1413;52.440;13.506;2022-11-21T08:35:23;32.05;;;15.18;;
2810;SDS011;1413;52.440;13.506;2022-11-21T08:37:53;39.55;;;17.02;;
2810;SDS011;1413;52.440;13.506;2022-11-21T08:40:22;35.35;;;15.60;;
2810;SDS011;1413;52.440;13.506;2022-11-21T08:42:54;38.28;;;15.45;;
2810;SDS011;1413;52.440;13.506;2022-11-21T08:45:22;28.95;;;12.95;;
2810;SDS011;1413;52.440;13.506;2022-11-21T08:47:49;31.02;;;13.93;;
2810;SDS011;1413;52.440;13.506;2022-11-21T08:50:17;33.85;;;14.65;;
2810;SDS011;1413;52.440;13.506;2022-11-21T08:52:44;23.67;;;11.07;;
2810;SDS011;1413;52.440;13.506;2022-11-21T08:55:12;27.05;;;12.95;;
2810;SDS011;1413;52.440;13.506;2022-11-21T08:57:41;23.80;;;12.48;;
2810;SDS011;1413;52.440;13.506;2022-11-21T09:00:09;28.58;;;12.63;;
2810;SDS011;1413;52.440;13.506;2022-11-21T09:02:38;32.38;;;12.55;;
2810;SDS011;1413;52.440;13.506;2022-11-21T09:05:06;28.65;;;12.05;;
2810;SDS011;1413;52.440;13.506;2022-11-21T09:07:34;26.77;;;12.05;;
2810;SDS011;1413;52.440;13.506;2022-11-21T09:10:01;30.45;;;12.98;;
2810;SDS011;1413;52.440;13.506;2022-11-21T09:12:29;25.80;;;11.90;;
2810;SDS011;1413;52.440;13.506;2022-11-21T09:14:58;30.20;;;12.20;;
2810;SDS011;1413;52.440;13.506;2022-11-21T09:17:43;26.33;;;11.90;;
2810;SDS011;1413;52.440;13.506;2022-11-21T09:20:28;27.42;;;12.43;;
2810;SDS011;1413;52.440;13.506;2022-11-21T09:22:56;29.83;;;12.45;;
2810;SDS011;1413;52.440;13.506;2022-11-21T09:25:23;35.90;;;14.85;;
2810;SDS011;1413;52.440;13.506;2022-11-21T09:27:51;29.52;;;12.70;;
2810;SDS011;1413;52.440;13.506;2022-11-21T09:30:20;27.15;;;12.15;;
2810;SDS011;1413;52.440;13.506;2022-11-21T09:32:47;28.98;;;12.40;;
2810;SDS011;1413;52.440;13.506;2022-11-21T09:35:15;24.50;;;11.68;;
2810;SDS011;1413;52.440;13.506;2022-11-21T09:37:42;29.30;;;13.38;;
2810;SDS011;1413;52.440;13.506;2022-11-21T09:40:11;29.25;;;12.20;;
2810;SDS011;1413;52.440;13.506;2022-11-21T09:42:47;31.02;;;13.68;;
2810;SDS011;1413;52.440;13.506;2022-11-21T09:45:20;28.70;;;12.75;;
2810;SDS011;1413;52.440;13.506;2022-11-21T09:47:49;30.15;;;13.63;;
2810;SDS011;1413;52.440;13.506;2022-11-21T09:50:20;26.35;;;11.18;;
2810;SDS011;1413;52.440;13.506;2022-11-21T09:52:51;28.80;;;12.13;;
2810;SDS011;1413;52.440;13.506;2022-11-21T09:55:20;29.00;;;13.60;;
2810;SDS011;1413;52.440;13.506;2022-11-21T09:57:49;31.27;;;12.38;;
2810;SDS011;1413;52.440;13.506;2022-11-21T10:00:20;27.02;;;11.02;;
2810;SDS011;1413;52.440;13.506;2022-11-21T10:02:48;31.83;;;12.93;;
2810;SDS011;1413;52.440;13.506;2022-11-21T10:05:16;28.35;;;11.65;;
2810;SDS011;1413;52.440;13.506;2022-11-21T10:07:45;28.20;;;10.50;;
2810;SDS011;1413;52.440;13.506;2022-11-21T10:10:17;28.38;;;11.98;;
2810;SDS011;1413;52.440;13.506;2022-11-21T10:12:49;22.33;;;9.20;;
2810;SDS011;1413;52.440;13.506;2022-11-21T10:15:28;25.48;;;10.50;;
2810;SDS011;1413;52.440;13.506;2022-11-21T10:18:01;24.52;;;9.25;;
2810;SDS011;1413;52.440;13.506;2022-11-21T10:20:39;29.55;;;12.27;;
2810;SDS011;1413;52.440;13.506;2022-11-21T10:23:17;27.92;;;10.68;;
2810;SDS011;1413;52.440;13.506;2022-11-21T10:25:49;24.85;;;10.15;;
2810;SDS011;1413;52.440;13.506;2022-11-21T10:28:19;27.02;;;10.55;;
2810;SDS011;1413;52.440;13.506;2022-11-21T10:30:52;29.25;;;11.02;;
2810;SDS011;1413;52.440;13.506;2022-11-21T10:33:24;22.35;;;9.07;;
2810;SDS011;1413;52.440;13.506;2022-11-21T10:35:54;19.45;;;7.85;;
2810;SDS011;1413;52.440;13.506;2022-11-21T10:38:24;23.40;;;9.18;;
2810;SDS011;1413;52.440;13.506;2022-11-21T10:40:53;26.60;;;9.75;;
2810;SDS011;1413;52.440;13.506;2022-11-21T10:43:23;23.35;;;8.77;;
2810;SDS011;1413;52.440;13.506;2022-11-21T10:46:13;18.52;;;7.30;;
2810;SDS011;1413;52.440;13.506;2022-11-21T10:48:40;20.10;;;8.38;;
2810;SDS011;1413;52.440;13.506;2022-11-21T10:51:21;22.95;;;8.70;;
2810;SDS011;1413;52.440;13.506;2022-11-21T10:54:03;19.48;;;7.97;;
2810;SDS011;1413;52.440;13.506;2022-11-21T10:56:48;19.98;;;8.52;;
2810;SDS011;1413;52.440;13.506;2022-11-21T10:59:19;18.70;;;7.82;;
2810;SDS011;1413;52.440;13.506;2022-11-21T11:01:57;14.77;;;6.25;;
2810;SDS011;1413;52.440;13.506;2022-11-21T11:04:25;18.15;;;7.35;;
2810;SDS011;1413;52.440;13.506;2022-11-21T11:07:18;16.17;;;6.75;;
2810;SDS011;1413;52.440;13.506;2022-11-21T11:09:46;16.30;;;6.80;;
2810;SDS011;1413;52.440;13.506;2022-11-21T11:12:25;17.23;;;7.20;;
2810;SDS011;1413;52.440;13.506;2022-11-21T11:15:16;18.33;;;7.18;;
2810;SDS011;1413;52.440;13.506;2022-11-21T11:17:45;13.70;;;5.40;;
2810;SDS011;1413;52.440;13.506;2022-11-21T11:20:27;17.23;;;7.50;;
2810;SDS011;1413;52.440;13.506;2022-11-21T11:22:55;16.65;;;7.03;;
2810;SDS011;1413;52.440;13.506;2022-11-21T11:25:22;17.70;;;7.13;;
2810;SDS011;1413;52.440;13.506;2022-11-21T11:27:50;18.60;;;7.50;;
2810;SDS011;1413;52.440;13.506;2022-11-21T11:30:18;20.05;;;6.97;;
2810;SDS011;1413;52.440;13.506;2022-11-21T11:32:47;14.88;;;6.03;;
2810;SDS011;1413;52.440;13.506;2022-11-21T11:35:20;16.98;;;7.35;;
2810;SDS011;1413;52.440;13.506;2022-11-21T11:37:49;15.27;;;6.38;;
2810;SDS011;1413;52.440;13.506;2022-11-21T11:40:24;15.68;;;6.90;;
2810;SDS011;1413;52.440;13.506;2022-11-21T11:43:19;15.40;;;6.50;;
2810;SDS011;1413;52.440;13.506;2022-11-21T11:46:13;14.40;;;6.43;;
2810;SDS011;1413;52.440;13.506;2022-11-21T11:49:14;13.48;;;5.85;;
2810;SDS011;1413;52.440;13.506;2022-11-21T11:51:47;15.98;;;6.22;;
2810;SDS011;1413;52.440;13.506;2022-11-21T11:54:18;17.33;;;6.90;;
2810;SDS011;1413;52.440;13.506;2022-11-21T11:56:46;14.05;;;6.05;;
2810;SDS011;1413;52.440;13.506;2022-11-21T11:59:15;10.63;;;4.80;;
2810;SDS011;1413;52.440;13.506;2022-11-21T12:01:47;15.60;;;6.25;;
2810;SDS011;1413;52.440;13.506;2022-11-21T12:04:18;14.25;;;6.18;;
2810;SDS011;1413;52.440;13.506;2022-11-21T12:06:47;15.07;;;6.35;;
2810;SDS011;1413;52.440;13.506;2022-11-21T12:09:36;13.57;;;5.82;;
2810;SDS011;1413;52.440;13.506;2022-11-21T12:12:08;14.32;;;5.70;;
2810;SDS011;1413;52.440;13.506;2022-11-21T12:14:41;14.00;;;6.00;;
2810;SDS011;1413;52.440;13.506;2022-11-21T12:17:30;12.30;;;5.45;;
2810;SDS011;1413;52.440;13.506;2022-11-21T12:20:00;12.23;;;5.45;;
2810;SDS011;1413;52.440;13.506;2022-11-21T12:22:29;14.27;;;5.47;;
2810;SDS011;1413;52.440;13.506;2022-11-21T12:24:57;10.02;;;5.00;;
2810;SDS011;1413;52.440;13.506;2022-11-21T12:27:26;15.77;;;5.22;;
2810;SDS011;1413;52.440;13.506;2022-11-21T12:30:02;12.90;;;5.68;;
2810;SDS011;1413;52.440;13.506;2022-11-21T12:32:39;13.32;;;5.68;;
2810;SDS011;1413;52.440;13.506;2022-11-21T12:35:23;14.77;;;6.00;;
2810;SDS011;1413;52.440;13.506;2022-11-21T12:37:58;15.60;;;5.88;;
2810;SDS011;1413;52.440;13.506;2022-11-21T12:40:33;13.68;;;6.38;;
2810;SDS011;1413;52.440;13.506;2022-11-21T12:43:07;14.50;;;6.57;;
2810;SDS011;1413;52.440;13.506;2022-11-21T12:45:36;16.08;;;6.78;;
2810;SDS011;1413;52.440;13.506;2022-11-21T12:48:13;15.52;;;7.05;;
2810;SDS011;1413;52.440;13.506;2022-11-21T12:51:09;15.77;;;6.72;;
2810;SDS011;1413;52.440;13.506;2022-11-21T12:53:58;19.92;;;7.85;;
2810;SDS011;1413;52.440;13.506;2022-11-21T12:56:47;17.33;;;7.60;;
2810;SDS011;1413;52.440;13.506;2022-11-21T12:59:16;15.82;;;6.72;;
2810;SDS011;1413;52.440;13.506;2022-11-21T13:01:46;18.02;;;8.77;;
2810;SDS011;1413;52.440;13.506;2022-11-21T13:04:19;13.43;;;6.55;;
2810;SDS011;1413;52.440;13.506;2022-11-21T13:09:18;16.90;;;8.00;;
2810;SDS011;1413;52.440;13.506;2022-11-21T13:11:48;18.67;;;7.68;;
2810;SDS011;1413;52.440;13.506;2022-11-21T13:14:36;20.75;;;7.40;;
2810;SDS011;1413;52.440;13.506;2022-11-21T13:17:12;15.73;;;6.82;;
2810;SDS011;1413;52.440;13.506;2022-11-21T13:19:43;15.93;;;6.70;;
2810;SDS011;1413;52.440;13.506;2022-11-21T13:25:00;16.45;;;7.40;;
2810;SDS011;1413;52.440;13.506;2022-11-21T13:27:29;15.52;;;7.45;;
2810;SDS011;1413;52.440;13.506;2022-11-21T13:30:17;17.42;;;8.05;;
2810;SDS011;1413;52.440;13.506;2022-11-21T13:32:45;14.85;;;7.30;;
2810;SDS011;1413;52.440;13.506;2022-11-21T13:38:12;17.25;;;7.28;;
2810;SDS011;1413;52.440;13.506;2022-11-21T13:40:41;16.83;;;6.95;;
2810;SDS011;1413;52.440;13.506;2022-11-21T13:43:29;14.65;;;7.10;;
2810;SDS011;1413;52.440;13.506;2022-11-21T13:45:59;15.70;;;7.38;;
2810;SDS011;1413;52.440;13.506;2022-11-21T13:51:19;17.33;;;7.70;;
2810;SDS011;1413;52.440;13.506;2022-11-21T13:54:00;15.57;;;7.30;;
2810;SDS011;1413;52.440;13.506;2022-11-21T13:56:35;15.30;;;6.95;;
2810;SDS011;1413;52.440;13.506;2022-11-21T13:59:11;17.30;;;7.32;;
2810;SDS011;1413;52.440;13.506;2022-11-21T14:01:56;15.45;;;7.45;;
2810;SDS011;1413;52.440;13.506;2022-11-21T14:04:36;17.13;;;7.82;;
2810;SDS011;1413;52.440;13.506;2022-11-21T14:07:23;16.30;;;6.93;;
2810;SDS011;1413;52.440;13.506;2022-11-21T14:09:53;15.88;;;7.90;;
2810;SDS011;1413;52.440;13.506;2022-11-21T14:12:25;15.40;;;7.13;;
2810;SDS011;1413;52.440;13.506;2022-11-21T14:15:11;14.90;;;7.00;;
2810;SDS011;1413;52.440;13.506;2022-11-21T14:17:42;16.00;;;7.13;;
2810;SDS011;1413;52.440;13.506;2022-11-21T14:20:13;15.63;;;7.35;;
2810;SDS011;1413;52.440;13.506;2022-11-21T14:22:42;15.07;;;7.13;;
2810;SDS011;1413;52.440;13.506;2022-11-21T14:25:14;16.20;;;7.80;;
2810;SDS011;1413;52.440;13.506;2022-11-21T14:27:45;19.17;;;8.80;;
2810;SDS011;1413;52.440;13.506;2022-11-21T14:30:24;15.65;;;7.35;;
2810;SDS011;1413;52.440;13.506;2022-11-21T14:32:53;19.25;;;7.47;;
2810;SDS011;1413;52.440;13.506;2022-11-21T14:35:21;19.90;;;9.20;;
2810;SDS011;1413;52.440;13.506;2022-11-21T14:37:48;20.25;;;9.07;;
2810;SDS011;1413;52.440;13.506;2022-11-21T14:40:18;18.98;;;8.18;;
2810;SDS011;1413;52.440;13.506;2022-11-21T14:42:47;18.20;;;8.40;;
2810;SDS011;1413;52.440;13.506;2022-11-21T14:45:16;19.65;;;8.35;;
2810;SDS011;1413;52.440;13.506;2022-11-21T14:47:45;16.50;;;7.65;;
2810;SDS011;1413;52.440;13.506;2022-11-21T14:50:20;19.05;;;7.80;;
2810;SDS011;1413;52.440;13.506;2022-11-21T14:52:48;16.60;;;8.43;;
2810;SDS011;1413;52.440;13.506;2022-11-21T14:55:23;20.05;;;8.48;;
2810;SDS011;1413;52.440;13.506;2022-11-21T14:57:58;16.23;;;8.50;;
2810;SDS011;1413;52.440;13.506;2022-11-21T15:00:28;18.33;;;9.10;;
2810;SDS011;1413;52.440;13.506;2022-11-21T15:03:17;16.38;;;8.30;;
2810;SDS011;1413;52.440;13.506;2022-11-21T15:05:45;22.13;;;9.43;;
2810;SDS011;1413;52.440;13.506;2022-11-21T15:08:33;17.48;;;8.55;;
2810;SDS011;1413;52.440;13.506;2022-11-21T15:11:22;17.83;;;8.43;;
2810;SDS011;1413;52.440;13.506;2022-11-21T15:13:53;17.10;;;8.88;;
2810;SDS011;1413;52.440;13.506;2022-11-21T15:16:41;21.35;;;9.70;;